createdAt,value
2018-11-03T00:00:04.648Z,9.91
2018-11-03T00:01:04.673Z,9.7
2018-11-03T00:02:04.735Z,9.82
2018-11-03T00:03:04.700Z,9.9
2018-11-03T00:07:32.838Z,9.77
2018-11-03T00:08:32.814Z,9.73
2018-11-03T00:09:32.922Z,9.76
2018-11-03T00:10:32.795Z,9.85
2018-11-03T00:11:32.750Z,9.74
2018-11-03T00:12:32.772Z,9.81
2018-11-03T00:13:32.795Z,9.81
2018-11-03T00:14:32.765Z,9.8
2018-11-03T00:15:32.789Z,9.74
2018-11-03T00:16:32.925Z,9.8
2018-11-03T00:17:32.785Z,9.74
2018-11-03T00:18:32.738Z,9.67
2018-11-03T00:19:32.811Z,9.74
2018-11-03T00:20:32.837Z,9.59
2018-11-03T00:21:32.781Z,9.62
2018-11-03T00:22:32.833Z,9.47
2018-11-03T00:23:32.860Z,9.62
2018-11-03T00:24:32.811Z,9.44
2018-11-03T00:25:32.838Z,9.44
2018-11-03T00:26:32.825Z,9.47
2018-11-03T00:27:32.900Z,9.33
2018-11-03T00:28:32.825Z,9.39
2018-11-03T00:33:01.471Z,9.44
2018-11-03T00:34:01.504Z,9.39
2018-11-03T00:35:01.436Z,9.4
2018-11-03T00:36:01.503Z,9.47
2018-11-03T00:37:01.479Z,9.4
2018-11-03T00:38:01.485Z,9.4
2018-11-03T00:39:01.464Z,9.44
2018-11-03T00:40:01.478Z,9.3
2018-11-03T00:41:01.475Z,9.29
2018-11-03T00:42:01.508Z,9.36
2018-11-03T00:43:01.495Z,9.37
2018-11-03T00:44:01.492Z,9.44
2018-11-03T00:45:01.518Z,9.4
2018-11-03T00:46:01.452Z,9.47
2018-11-03T00:47:02.136Z,9.29
2018-11-03T00:48:01.497Z,9.36
2018-11-03T00:49:01.493Z,9.42
2018-11-03T00:50:01.582Z,9.44
2018-11-03T00:51:01.437Z,9.47
2018-11-03T00:52:01.453Z,9.47
2018-11-03T00:53:01.619Z,9.4
2018-11-03T00:54:01.474Z,9.48
2018-11-03T00:55:01.542Z,9.48
2018-11-03T00:56:01.467Z,9.54
2018-11-03T00:57:01.491Z,9.47
2018-11-03T00:58:01.520Z,9.49
2018-11-03T00:59:01.493Z,9.42
2018-11-03T01:00:01.460Z,9.49
2018-11-03T01:01:02.112Z,9.31
2018-11-03T01:02:01.509Z,9.39
2018-11-03T01:03:01.490Z,9.37
2018-11-03T01:04:01.540Z,9.29
2018-11-03T01:07:08.714Z,9.47
2018-11-03T01:07:21.181Z,9.31
2018-11-03T01:08:21.185Z,9.33
2018-11-03T01:09:21.816Z,9.37
2018-11-03T01:10:21.135Z,9.33
2018-11-03T01:11:21.196Z,9.31
2018-11-03T01:12:21.173Z,9.31
2018-11-03T01:13:21.139Z,9.29
2018-11-03T01:14:21.191Z,9.33
2018-11-03T01:15:21.245Z,9.47
2018-11-03T01:16:21.189Z,9.42
2018-11-03T01:17:23.281Z,9.49
2018-11-03T01:18:22.904Z,9.42
2018-11-03T01:19:21.194Z,9.49
2018-11-03T01:20:21.173Z,9.4
2018-11-03T01:21:21.206Z,9.44
2018-11-03T01:22:21.179Z,9.47
2018-11-03T01:23:21.201Z,9.49
2018-11-03T01:24:21.220Z,9.44
2018-11-03T01:25:21.161Z,9.49
2018-11-03T01:26:21.226Z,9.45
2018-11-03T01:27:21.206Z,9.45
2018-11-03T01:28:21.120Z,9.42
2018-11-03T01:29:21.178Z,9.47
2018-11-03T01:30:21.158Z,9.42
2018-11-03T01:31:21.189Z,9.44
2018-11-03T01:32:21.263Z,9.47
2018-11-03T01:33:21.447Z,9.42
2018-11-03T01:34:21.211Z,9.45
2018-11-03T01:35:21.222Z,9.54
2018-11-03T01:36:21.193Z,9.48
2018-11-03T01:37:21.214Z,9.48
2018-11-03T01:38:21.219Z,9.48
2018-11-03T01:39:21.229Z,9.45
2018-11-03T01:40:21.188Z,9.51
2018-11-03T01:41:21.206Z,9.47
2018-11-03T01:42:21.160Z,9.47
2018-11-03T01:43:21.175Z,9.39
2018-11-03T01:44:21.219Z,9.45
2018-11-03T01:45:21.195Z,9.36
2018-11-03T01:46:21.265Z,9.39
2018-11-03T01:47:21.207Z,9.39
2018-11-03T01:48:21.446Z,9.33
2018-11-03T01:49:21.242Z,9.39
2018-11-03T01:50:21.158Z,9.29
2018-11-03T01:51:21.228Z,9.39
2018-11-03T01:52:21.226Z,9.31
2018-11-03T01:53:21.206Z,9.26
2018-11-03T01:54:21.236Z,9.3
2018-11-03T01:55:21.360Z,9.3
2018-11-03T01:56:21.199Z,9.44
2018-11-03T01:57:21.204Z,9.47
2018-11-03T01:58:21.275Z,9.44
2018-11-03T01:59:21.207Z,9.36
2018-11-03T02:00:21.235Z,9.31
2018-11-03T02:01:21.220Z,9.31
2018-11-03T02:02:21.202Z,9.37
2018-11-03T02:03:21.232Z,9.26
2018-11-03T02:04:21.249Z,9.37
2018-11-03T02:05:21.259Z,9.26
2018-11-03T02:06:21.229Z,9.36
2018-11-03T02:07:21.201Z,9.42
2018-11-03T02:08:21.307Z,9.42
2018-11-03T02:09:21.257Z,9.36
2018-11-03T02:10:21.186Z,9.24
2018-11-03T02:11:21.306Z,9.4
2018-11-03T02:12:21.250Z,9.36
2018-11-03T02:13:21.246Z,9.39
2018-11-03T02:14:21.207Z,9.36
2018-11-03T02:15:21.260Z,9.33
2018-11-03T02:16:21.227Z,9.31
2018-11-03T02:17:21.387Z,9.3
2018-11-03T02:18:21.334Z,9.31
2018-11-03T02:19:21.309Z,9.31
2018-11-03T02:20:21.221Z,9.22
2018-11-03T02:21:21.265Z,9.27
2018-11-03T02:22:21.240Z,9.31
2018-11-03T02:23:21.284Z,9.29
2018-11-03T02:24:21.247Z,9.22
2018-11-03T02:25:21.378Z,9.18
2018-11-03T02:26:21.331Z,9.15
2018-11-03T02:27:21.441Z,9.08
2018-11-03T02:28:21.310Z,9.15
2018-11-03T02:29:21.383Z,9.12
2018-11-03T02:30:21.431Z,9.11
2018-11-03T02:31:21.289Z,9.09
2018-11-03T02:32:21.316Z,9.12
2018-11-03T02:33:21.342Z,9.18
2018-11-03T02:34:21.304Z,9.16
2018-11-03T02:35:21.249Z,9.16
2018-11-03T02:36:21.295Z,9.12
2018-11-03T02:37:21.305Z,9.13
2018-11-03T02:38:21.400Z,9.13
2018-11-03T02:39:21.365Z,9.16
2018-11-03T02:40:21.423Z,9.11
2018-11-03T02:41:21.377Z,9.12
2018-11-03T02:42:21.606Z,9.08
2018-11-03T02:43:21.312Z,8.99
2018-11-03T02:44:21.320Z,9.03
2018-11-03T02:45:21.322Z,8.99
2018-11-03T02:46:21.314Z,9.08
2018-11-03T02:47:21.328Z,9.12
2018-11-03T02:48:21.433Z,8.95
2018-11-03T02:49:21.350Z,9.02
2018-11-03T02:50:21.372Z,9.03
2018-11-03T02:51:21.352Z,9.13
2018-11-03T02:52:21.325Z,9.18
2018-11-03T02:53:21.299Z,9.18
2018-11-03T02:54:21.314Z,9.12
2018-11-03T02:55:21.311Z,8.97
2018-11-03T02:56:21.393Z,9.11
2018-11-03T02:57:21.329Z,9.21
2018-11-03T02:58:21.363Z,9.13
2018-11-03T02:59:21.374Z,9.21
2018-11-03T03:00:21.557Z,9.12
2018-11-03T03:01:21.381Z,9.13
2018-11-03T03:02:21.467Z,9.13
2018-11-03T03:03:21.351Z,9.13
2018-11-03T03:04:21.332Z,9.26
2018-11-03T03:05:21.377Z,9.24
2018-11-03T03:06:21.324Z,9.22
2018-11-03T03:07:23.741Z,9.21
2018-11-03T03:08:21.371Z,9.18
2018-11-03T03:09:22.165Z,9.22
2018-11-03T03:10:21.307Z,9.24
2018-11-03T03:11:21.347Z,9.18
2018-11-03T03:12:21.968Z,9.27
2018-11-03T03:13:21.320Z,9.33
2018-11-03T03:14:21.322Z,9.33
2018-11-03T03:15:21.339Z,9.3
2018-11-03T03:16:21.369Z,9.3
2018-11-03T03:17:21.664Z,9.33
2018-11-03T03:18:21.363Z,9.3
2018-11-03T03:19:21.364Z,9.33
2018-11-03T03:20:21.349Z,9.34
2018-11-03T03:21:21.348Z,9.3
2018-11-03T03:22:21.338Z,9.36
2018-11-03T03:23:21.309Z,9.3
2018-11-03T03:24:21.358Z,9.31
2018-11-03T03:25:21.340Z,9.31
2018-11-03T03:26:21.352Z,9.29
2018-11-03T03:27:21.324Z,9.3
2018-11-03T03:28:21.927Z,9.29
2018-11-03T03:29:21.467Z,9.24
2018-11-03T03:30:21.372Z,9.31
2018-11-03T03:31:21.403Z,9.29
2018-11-03T03:32:21.351Z,9.3
2018-11-03T03:33:21.419Z,9.33
2018-11-03T03:34:21.871Z,9.27
2018-11-03T03:35:21.368Z,9.33
2018-11-03T03:36:21.376Z,9.3
2018-11-03T03:37:25.510Z,9.29
2018-11-03T03:38:21.970Z,9.29
2018-11-03T03:39:21.366Z,9.34
2018-11-03T03:40:21.412Z,9.31
2018-11-03T03:41:21.429Z,9.26
2018-11-03T03:42:22.674Z,9.3
2018-11-03T03:43:21.389Z,9.3
2018-11-03T03:44:21.369Z,9.31
2018-11-03T03:45:21.376Z,9.24
2018-11-03T03:46:21.407Z,9.27
2018-11-03T03:47:21.443Z,9.29
2018-11-03T03:48:21.456Z,9.34
2018-11-03T03:49:21.521Z,9.3
2018-11-03T03:50:21.457Z,9.31
2018-11-03T03:51:21.604Z,9.26
2018-11-03T03:52:25.312Z,9.21
2018-11-03T03:53:21.440Z,9.34
2018-11-03T03:54:21.424Z,9.24
2018-11-03T03:55:21.393Z,9.3
2018-11-03T03:56:21.416Z,9.24
2018-11-03T03:57:21.385Z,9.29
2018-11-03T03:58:21.462Z,9.22
2018-11-03T03:59:21.343Z,9.24
2018-11-03T04:00:21.442Z,9.22
2018-11-03T04:01:21.416Z,9.27
2018-11-03T04:02:21.412Z,9.3
2018-11-03T04:03:21.446Z,9.37
2018-11-03T04:04:21.464Z,9.33
2018-11-03T04:05:21.432Z,9.36
2018-11-03T04:06:21.432Z,9.29
2018-11-03T04:07:21.449Z,9.4
2018-11-03T04:08:21.463Z,9.31
2018-11-03T04:09:21.413Z,9.29
2018-11-03T04:12:28.620Z,9.27
2018-11-03T04:12:41.305Z,9.29
2018-11-03T04:13:41.271Z,9.27
2018-11-03T04:14:41.346Z,9.26
2018-11-03T04:15:41.270Z,9.29
2018-11-03T04:16:41.348Z,9.27
2018-11-03T04:17:41.298Z,9.19
2018-11-03T04:18:41.336Z,9.12
2018-11-03T04:19:41.357Z,9.15
2018-11-03T04:20:41.318Z,9.21
2018-11-03T04:21:41.355Z,9.16
2018-11-03T04:22:41.470Z,9.22
2018-11-03T04:23:41.323Z,9.16
2018-11-03T04:24:41.286Z,9.18
2018-11-03T04:25:41.299Z,9.19
2018-11-03T04:26:41.369Z,9.19
2018-11-03T04:27:42.268Z,9.21
2018-11-03T04:28:41.290Z,9.22
2018-11-03T04:29:41.382Z,9.16
2018-11-03T04:30:41.356Z,9.13
2018-11-03T04:31:41.344Z,8.95
2018-11-03T04:32:41.351Z,9.11
2018-11-03T04:33:41.848Z,9.11
2018-11-03T04:34:41.325Z,9.12
2018-11-03T04:35:41.366Z,9.13
2018-11-03T04:36:41.360Z,9.13
2018-11-03T04:37:41.332Z,9.16
2018-11-03T04:38:41.351Z,9.12
2018-11-03T04:39:41.329Z,9.11
2018-11-03T04:40:41.457Z,9.13
2018-11-03T04:41:41.315Z,9.15
2018-11-03T04:42:42.114Z,9.16
2018-11-03T04:43:41.366Z,9.15
2018-11-03T04:44:41.380Z,9.11
2018-11-03T04:45:41.565Z,9.08
2018-11-03T04:46:41.375Z,9.12
2018-11-03T04:47:41.419Z,9.09
2018-11-03T04:48:42.057Z,8.96
2018-11-03T04:49:41.349Z,9.03
2018-11-03T04:50:41.959Z,9.08
2018-11-03T04:51:41.362Z,8.99
2018-11-03T04:52:41.374Z,8.95
2018-11-03T04:53:41.311Z,8.99
2018-11-03T04:54:41.382Z,9.05
2018-11-03T04:55:41.376Z,9.08
2018-11-03T04:56:41.359Z,8.99
2018-11-03T04:57:41.344Z,9.05
2018-11-03T04:58:41.435Z,9.05
2018-11-03T04:59:41.422Z,9.02
2018-11-03T05:00:41.387Z,9.08
2018-11-03T05:01:41.391Z,9.11
2018-11-03T05:02:41.354Z,9.02
2018-11-03T05:03:41.372Z,9.15
2018-11-03T05:04:41.379Z,9.11
2018-11-03T05:05:41.383Z,9.09
2018-11-03T05:06:41.459Z,9.09
2018-11-03T05:07:41.425Z,9.09
2018-11-03T05:08:41.405Z,9.16
2018-11-03T05:09:41.517Z,9.13
2018-11-03T05:10:42.541Z,9.13
2018-11-03T05:11:41.468Z,9.11
2018-11-03T05:12:41.385Z,9.12
2018-11-03T05:13:41.718Z,9.13
2018-11-03T05:14:41.337Z,9.12
2018-11-03T05:15:41.432Z,9.13
2018-11-03T05:16:41.394Z,9.11
2018-11-03T05:17:41.362Z,9.09
2018-11-03T05:18:41.381Z,9.09
2018-11-03T05:19:41.370Z,9
2018-11-03T05:20:41.438Z,9.11
2018-11-03T05:21:41.355Z,9.11
2018-11-03T05:22:41.399Z,9
2018-11-03T05:23:41.427Z,9.13
2018-11-03T05:24:42.358Z,9.05
2018-11-03T05:25:41.414Z,9.02
2018-11-03T05:26:41.439Z,8.97
2018-11-03T05:27:41.414Z,8.84
2018-11-03T05:28:41.369Z,8.87
2018-11-03T05:29:41.419Z,8.92
2018-11-03T05:30:41.439Z,9
2018-11-03T05:31:41.429Z,8.97
2018-11-03T05:32:41.392Z,8.97
2018-11-03T05:33:41.430Z,9
2018-11-03T05:34:41.416Z,9.08
2018-11-03T05:35:41.393Z,8.92
2018-11-03T05:36:41.424Z,9
2018-11-03T05:37:41.398Z,9
2018-11-03T05:38:41.425Z,9.05
2018-11-03T05:39:41.447Z,9.02
2018-11-03T05:40:41.541Z,8.92
2018-11-03T05:41:41.442Z,8.99
2018-11-03T05:42:41.392Z,9
2018-11-03T05:43:41.674Z,9.02
2018-11-03T05:44:41.551Z,8.92
2018-11-03T05:45:41.524Z,8.99
2018-11-03T05:46:41.563Z,8.97
2018-11-03T05:47:41.428Z,8.96
2018-11-03T05:48:41.456Z,9.09
2018-11-03T05:49:41.466Z,9.03
2018-11-03T05:50:41.451Z,9.11
2018-11-03T05:51:41.522Z,9.03
2018-11-03T05:52:41.460Z,9.03
2018-11-03T05:53:41.471Z,9.03
2018-11-03T06:00:20.391Z,8.9
2018-11-03T06:01:20.151Z,8.99
2018-11-03T06:02:20.228Z,9.03
2018-11-03T06:03:20.170Z,9
2018-11-03T06:04:20.177Z,9.05
2018-11-03T06:05:20.224Z,8.97
2018-11-03T06:06:20.144Z,9.11
2018-11-03T06:08:25.225Z,8.95
2018-11-03T06:08:37.741Z,9.03
2018-11-03T06:09:37.841Z,9.13
2018-11-03T06:10:37.750Z,9.08
2018-11-03T06:11:37.720Z,9.16
2018-11-03T06:12:37.808Z,9.16
2018-11-03T06:13:37.662Z,9
2018-11-03T06:14:37.667Z,8.97
2018-11-03T06:15:37.855Z,9.09
2018-11-03T06:16:37.624Z,9.08
2018-11-03T06:17:37.661Z,9.12
2018-11-03T06:18:37.673Z,9.12
2018-11-03T06:23:54.382Z,9.12
2018-11-03T06:24:06.756Z,9.12
2018-11-03T06:25:06.919Z,9.08
2018-11-03T06:26:06.811Z,9.12
2018-11-03T06:27:06.793Z,9.02
2018-11-03T06:28:06.918Z,9.02
2018-11-03T06:35:32.391Z,9.11
2018-11-03T06:35:44.749Z,9.12
2018-11-03T06:36:44.774Z,9.09
2018-11-03T06:37:44.729Z,9.19
2018-11-03T06:38:44.845Z,9.15
2018-11-03T06:39:44.770Z,9.12
2018-11-03T06:40:44.770Z,9.16
2018-11-03T06:41:44.754Z,9.16
2018-11-03T06:42:44.755Z,9.09
2018-11-03T06:43:45.058Z,9.16
2018-11-03T06:44:44.737Z,9.13
2018-11-03T06:45:44.771Z,9.13
2018-11-03T06:46:44.921Z,9.13
2018-11-03T06:47:44.793Z,9.11
2018-11-03T06:48:44.841Z,9.15
2018-11-03T06:49:44.759Z,9.24
2018-11-03T06:50:45.449Z,9.27
2018-11-03T06:51:44.812Z,9.27
2018-11-03T06:52:44.851Z,9.18
2018-11-03T06:53:44.791Z,9.26
2018-11-03T06:54:44.841Z,9.29
2018-11-03T06:55:44.785Z,9.22
2018-11-03T06:56:44.748Z,9.27
2018-11-03T06:57:44.787Z,9.3
2018-11-03T06:58:44.757Z,9.33
2018-11-03T06:59:44.779Z,9.29
2018-11-03T07:00:44.775Z,9.29
2018-11-03T07:01:44.786Z,9.37
2018-11-03T07:02:44.821Z,9.4
2018-11-03T07:03:45.814Z,9.45
2018-11-03T07:04:44.787Z,9.42
2018-11-03T07:05:44.794Z,9.47
2018-11-03T07:06:44.804Z,9.47
2018-11-03T07:07:44.827Z,9.48
2018-11-03T07:08:44.813Z,9.51
2018-11-03T07:09:44.831Z,9.48
2018-11-03T07:10:44.779Z,9.51
2018-11-03T07:11:44.988Z,9.54
2018-11-03T07:12:45.168Z,9.52
2018-11-03T07:18:01.226Z,9.58
2018-11-03T07:18:16.808Z,9.62
2018-11-03T07:19:13.595Z,9.62
2018-11-03T07:20:13.607Z,9.62
2018-11-03T07:21:13.613Z,9.55
2018-11-03T07:22:13.556Z,9.55
2018-11-03T07:23:13.660Z,9.69
2018-11-03T07:24:13.600Z,9.72
2018-11-03T07:25:13.633Z,9.72
2018-11-03T07:26:13.587Z,9.64
2018-11-03T07:27:13.649Z,9.76
2018-11-03T07:28:13.596Z,9.74
2018-11-03T07:29:13.606Z,9.85
2018-11-03T07:30:13.680Z,9.81
2018-11-03T07:31:13.671Z,9.8
2018-11-03T07:32:13.650Z,9.74
2018-11-03T07:33:13.594Z,9.85
2018-11-03T07:34:13.759Z,9.77
2018-11-03T07:35:13.715Z,9.85
2018-11-03T07:36:13.629Z,9.88
2018-11-03T07:37:13.605Z,9.84
2018-11-03T07:38:13.793Z,9.92
2018-11-03T07:39:13.731Z,9.91
2018-11-03T07:40:13.649Z,9.84
2018-11-03T07:41:13.830Z,9.88
2018-11-03T07:42:13.620Z,9.95
2018-11-03T07:43:13.688Z,9.87
2018-11-03T07:44:13.647Z,9.91
2018-11-03T07:45:13.699Z,9.97
2018-11-03T07:46:13.745Z,9.9
2018-11-03T07:47:13.671Z,9.95
2018-11-03T07:48:13.803Z,9.99
2018-11-03T07:49:13.862Z,10.02
2018-11-03T07:50:13.665Z,10.15
2018-11-03T07:51:13.632Z,10.27
2018-11-03T07:52:13.620Z,10.25
2018-11-03T07:53:13.888Z,10.18
2018-11-03T07:54:13.666Z,10.27
2018-11-03T07:55:13.719Z,10.34
2018-11-03T07:56:13.712Z,10.45
2018-11-03T07:57:13.669Z,10.64
2018-11-03T07:58:13.654Z,10.68
2018-11-03T07:59:13.667Z,10.95
2018-11-03T08:00:13.718Z,10.95
2018-11-03T08:01:13.679Z,11.02
2018-11-03T08:02:13.668Z,11.31
2018-11-03T08:03:13.674Z,11.23
2018-11-03T08:04:13.960Z,11.3
2018-11-03T08:05:13.757Z,11.16
2018-11-03T08:06:13.637Z,11.22
2018-11-03T08:07:13.748Z,11.45
2018-11-03T08:09:18.301Z,11.52
2018-11-03T08:09:30.779Z,11.4
2018-11-03T08:10:30.652Z,11.44
2018-11-03T08:11:31.457Z,11.37
2018-11-03T08:12:30.673Z,11.35
2018-11-03T08:13:30.650Z,11.33
2018-11-03T08:14:30.676Z,11.26
2018-11-03T08:15:30.752Z,11.37
2018-11-03T08:16:30.656Z,11.15
2018-11-03T08:17:30.702Z,11.1
2018-11-03T08:18:30.751Z,11.3
2018-11-03T08:19:30.641Z,11.25
2018-11-03T08:20:30.696Z,11.3
2018-11-03T08:21:30.724Z,11.25
2018-11-03T08:22:30.666Z,11.22
2018-11-03T08:23:30.703Z,11.35
2018-11-03T08:24:30.749Z,11.44
2018-11-03T08:25:30.710Z,11.48
2018-11-03T08:26:30.694Z,11.38
2018-11-03T08:27:30.715Z,11.48
2018-11-03T08:28:30.734Z,11.41
2018-11-03T08:29:30.675Z,11.44
2018-11-03T08:30:30.752Z,11.41
2018-11-03T08:31:31.048Z,11.6
2018-11-03T08:32:30.721Z,11.53
2018-11-03T08:33:30.749Z,11.48
2018-11-03T08:34:31.084Z,11.45
2018-11-03T08:35:31.358Z,11.4
2018-11-03T08:36:30.657Z,11.38
2018-11-03T08:37:30.895Z,11.44
2018-11-03T08:38:30.719Z,11.45
2018-11-03T08:39:31.466Z,11.3
2018-11-03T08:40:30.723Z,11.38
2018-11-03T08:41:30.735Z,11.38
2018-11-03T08:42:30.747Z,11.41
2018-11-03T08:43:30.737Z,11.43
2018-11-03T08:44:30.770Z,11.43
2018-11-03T08:45:30.690Z,11.41
2018-11-03T08:46:30.833Z,11.58
2018-11-03T08:47:30.690Z,11.55
2018-11-03T08:48:30.861Z,11.43
2018-11-03T08:49:30.812Z,11.45
2018-11-03T08:50:30.791Z,11.44
2018-11-03T08:51:30.746Z,11.43
2018-11-03T08:52:30.700Z,11.56
2018-11-03T08:53:30.867Z,11.45
2018-11-03T08:54:30.705Z,11.49
2018-11-03T08:55:30.815Z,11.45
2018-11-03T08:56:30.717Z,11.49
2018-11-03T08:57:30.755Z,11.53
2018-11-03T08:58:30.717Z,11.51
2018-11-03T08:59:30.857Z,11.51
2018-11-03T09:00:30.798Z,11.52
2018-11-03T09:01:30.753Z,11.53
2018-11-03T09:02:30.833Z,11.45
2018-11-03T09:03:30.805Z,11.49
2018-11-03T09:04:30.760Z,11.53
2018-11-03T09:05:30.844Z,11.44
2018-11-03T09:06:30.818Z,11.62
2018-11-03T09:07:30.691Z,11.62
2018-11-03T09:08:30.773Z,11.6
2018-11-03T09:09:30.797Z,11.65
2018-11-03T09:10:30.781Z,11.6
2018-11-03T09:11:30.735Z,11.6
2018-11-03T09:12:30.789Z,11.67
2018-11-03T09:13:31.621Z,11.65
2018-11-03T09:14:30.788Z,11.68
2018-11-03T09:15:30.752Z,11.74
2018-11-03T09:16:30.810Z,11.77
2018-11-03T09:17:30.853Z,11.77
2018-11-03T09:18:30.828Z,11.77
2018-11-03T09:19:30.842Z,11.83
2018-11-03T09:20:30.807Z,11.95
2018-11-03T09:21:30.762Z,11.86
2018-11-03T09:22:30.867Z,11.86
2018-11-03T09:24:35.284Z,11.86
2018-11-03T09:24:47.705Z,11.93
2018-11-03T09:25:47.701Z,11.96
2018-11-03T09:26:47.669Z,11.99
2018-11-03T09:27:47.620Z,11.74
2018-11-03T09:28:47.653Z,11.88
2018-11-03T09:29:47.662Z,11.8
2018-11-03T09:30:47.636Z,11.88
2018-11-03T09:31:47.792Z,11.86
2018-11-03T09:32:47.665Z,11.86
2018-11-03T09:33:47.653Z,11.91
2018-11-03T09:34:47.806Z,12.08
2018-11-03T09:35:47.672Z,11.96
2018-11-03T09:36:47.743Z,12.08
2018-11-03T09:37:47.639Z,12.2
2018-11-03T09:38:47.892Z,12.02
2018-11-03T09:39:47.714Z,12.03
2018-11-03T09:40:47.668Z,12.12
2018-11-03T09:41:47.627Z,12.08
2018-11-03T09:42:47.693Z,12.03
2018-11-03T09:43:48.432Z,11.96
2018-11-03T09:44:47.791Z,12
2018-11-03T09:45:47.664Z,11.95
2018-11-03T09:46:47.652Z,11.96
2018-11-03T09:47:47.672Z,11.99
2018-11-03T09:48:47.661Z,12.05
2018-11-03T09:49:47.978Z,12.08
2018-11-03T09:50:47.863Z,12.12
2018-11-03T09:51:47.649Z,12.12
2018-11-03T09:52:47.743Z,12
2018-11-03T09:53:47.669Z,12.03
2018-11-03T09:54:47.760Z,12.11
2018-11-03T09:55:47.645Z,12.17
2018-11-03T09:56:47.923Z,12.18
2018-11-03T09:57:47.672Z,12.21
2018-11-03T09:59:52.246Z,12.18
2018-11-03T10:00:04.642Z,12.17
2018-11-03T10:01:04.772Z,12.17
2018-11-03T10:02:04.634Z,12.03
2018-11-03T10:03:04.669Z,12.1
2018-11-03T10:04:04.618Z,12.18
2018-11-03T10:05:04.754Z,12.18
2018-11-03T10:06:04.670Z,12.25
2018-11-03T10:07:04.654Z,12.2
2018-11-03T10:08:04.608Z,12.26
2018-11-03T10:09:04.687Z,12.29
2018-11-03T10:10:04.656Z,12.23
2018-11-03T10:11:04.658Z,12.29
2018-11-03T10:12:04.679Z,12.36
2018-11-03T10:13:04.644Z,12.25
2018-11-03T10:14:05.364Z,12.26
2018-11-03T10:15:04.667Z,12.37
2018-11-03T10:16:04.831Z,12.21
2018-11-03T10:17:04.648Z,12.2
2018-11-03T10:18:04.617Z,12.2
2018-11-03T10:19:04.779Z,12.17
2018-11-03T10:20:04.622Z,12.3
2018-11-03T10:21:04.622Z,12.39
2018-11-03T10:22:04.783Z,12.37
2018-11-03T10:23:04.941Z,12.37
2018-11-03T10:24:04.708Z,12.25
2018-11-03T10:25:04.685Z,12.26
2018-11-03T10:26:04.722Z,12.33
2018-11-03T10:27:04.709Z,12.37
2018-11-03T10:28:04.669Z,12.35
2018-11-03T10:29:04.671Z,12.39
2018-11-03T10:30:04.767Z,12.29
2018-11-03T10:31:12.097Z,12.37
2018-11-03T10:32:04.740Z,12.29
2018-11-03T10:33:04.670Z,12.36
2018-11-03T10:34:04.673Z,12.36
2018-11-03T10:35:04.754Z,12.44
2018-11-03T10:36:04.718Z,12.62
2018-11-03T10:37:04.727Z,12.63
2018-11-03T10:38:05.087Z,12.7
2018-11-03T10:39:04.678Z,12.55
2018-11-03T10:40:04.712Z,12.57
2018-11-03T10:41:04.654Z,12.44
2018-11-03T10:42:04.671Z,12.44
2018-11-03T10:43:04.765Z,12.54
2018-11-03T10:45:09.395Z,12.66
2018-11-03T10:45:22.171Z,12.58
2018-11-03T10:46:21.958Z,12.62
2018-11-03T10:47:21.809Z,12.7
2018-11-03T10:48:21.837Z,12.57
2018-11-03T10:49:21.936Z,12.61
2018-11-03T10:50:21.983Z,12.7
2018-11-03T10:51:21.915Z,12.69
2018-11-03T10:52:21.857Z,12.7
2018-11-03T10:53:21.860Z,12.66
2018-11-03T10:54:21.920Z,12.76
2018-11-03T10:55:21.877Z,12.7
2018-11-03T10:56:21.862Z,12.86
2018-11-03T10:57:21.907Z,12.78
2018-11-03T10:58:21.871Z,12.81
2018-11-03T10:59:21.958Z,12.73
2018-11-03T11:00:21.932Z,12.8
2018-11-03T11:01:21.918Z,12.81
2018-11-03T11:02:21.907Z,12.83
2018-11-03T11:03:21.976Z,12.78
2018-11-03T11:04:21.939Z,12.8
2018-11-03T11:05:21.924Z,12.76
2018-11-03T11:06:21.921Z,12.8
2018-11-03T11:07:21.940Z,12.8
2018-11-03T11:08:21.933Z,12.78
2018-11-03T11:09:22.058Z,12.76
2018-11-03T11:10:22.058Z,12.87
2018-11-03T11:11:21.981Z,12.81
2018-11-03T11:12:21.902Z,12.88
2018-11-03T11:13:22.000Z,12.78
2018-11-03T11:14:22.021Z,12.8
2018-11-03T11:15:21.953Z,12.72
2018-11-03T11:16:22.078Z,12.81
2018-11-03T11:17:21.923Z,12.78
2018-11-03T11:18:21.954Z,12.76
2018-11-03T11:19:21.983Z,12.83
2018-11-03T11:20:21.967Z,12.88
2018-11-03T11:21:21.909Z,12.9
2018-11-03T11:22:21.890Z,12.9
2018-11-03T11:23:22.143Z,12.88
2018-11-03T11:24:22.181Z,12.93
2018-11-03T11:25:22.140Z,12.94
2018-11-03T11:26:21.951Z,12.94
2018-11-03T11:27:21.933Z,12.94
2018-11-03T11:28:21.939Z,12.91
2018-11-03T11:29:22.029Z,12.93
2018-11-03T11:30:22.409Z,12.95
2018-11-03T11:31:22.077Z,13.05
2018-11-03T11:32:22.024Z,12.94
2018-11-03T11:33:22.456Z,13.02
2018-11-03T11:34:21.966Z,13.13
2018-11-03T11:35:21.978Z,13.09
2018-11-03T11:36:22.109Z,13.17
2018-11-03T11:37:22.071Z,13.2
2018-11-03T11:38:22.002Z,13.11
2018-11-03T11:39:22.012Z,13.13
2018-11-03T11:40:22.020Z,13.23
2018-11-03T11:41:21.992Z,13.2
2018-11-03T11:42:22.074Z,13.24
2018-11-03T11:43:22.025Z,13.09
2018-11-03T11:44:22.088Z,13.28
2018-11-03T11:45:21.985Z,13.24
2018-11-03T11:46:22.021Z,13.23
2018-11-03T11:47:21.982Z,13.39
2018-11-03T11:48:22.002Z,13.4
2018-11-03T11:49:21.975Z,13.43
2018-11-03T11:50:22.035Z,13.28
2018-11-03T11:51:21.989Z,13.27
2018-11-03T11:52:21.922Z,13.36
2018-11-03T11:53:21.933Z,13.42
2018-11-03T11:54:21.994Z,13.36
2018-11-03T11:55:22.003Z,13.52
2018-11-03T11:56:22.004Z,13.49
2018-11-03T11:57:22.053Z,13.52
2018-11-03T11:58:22.017Z,13.54
2018-11-03T11:59:22.035Z,13.49
2018-11-03T12:00:22.044Z,13.54
2018-11-03T12:01:21.979Z,13.54
2018-11-03T12:02:22.189Z,13.52
2018-11-03T12:03:22.083Z,13.57
2018-11-03T12:04:22.014Z,13.61
2018-11-03T12:05:22.100Z,13.31
2018-11-03T12:06:22.008Z,13.46
2018-11-03T12:07:21.984Z,13.47
2018-11-03T12:08:22.089Z,13.54
2018-11-03T12:09:22.035Z,13.47
2018-11-03T12:10:22.075Z,13.47
2018-11-03T12:11:22.040Z,13.5
2018-11-03T12:12:22.011Z,13.46
2018-11-03T12:13:22.044Z,13.57
2018-11-03T12:14:22.042Z,13.55
2018-11-03T12:15:22.037Z,13.6
2018-11-03T12:16:22.242Z,13.7
2018-11-03T12:17:23.565Z,13.71
2018-11-03T12:18:22.024Z,13.65
2018-11-03T12:19:22.036Z,13.55
2018-11-03T12:20:22.314Z,13.58
2018-11-03T12:21:22.528Z,13.47
2018-11-03T12:22:22.009Z,13.54
2018-11-03T12:23:22.024Z,13.62
2018-11-03T12:24:22.023Z,13.67
2018-11-03T12:25:22.210Z,13.55
2018-11-03T12:26:22.030Z,13.73
2018-11-03T12:27:22.011Z,13.62
2018-11-03T12:28:22.118Z,13.73
2018-11-03T12:29:22.062Z,13.55
2018-11-03T12:30:22.033Z,13.49
2018-11-03T12:31:22.041Z,13.52
2018-11-03T12:32:22.056Z,13.55
2018-11-03T12:33:22.116Z,13.52
2018-11-03T12:34:22.049Z,13.55
2018-11-03T12:35:22.095Z,13.45
2018-11-03T12:36:22.018Z,13.57
2018-11-03T12:37:22.040Z,13.61
2018-11-03T12:38:22.061Z,13.64
2018-11-03T12:39:22.101Z,13.55
2018-11-03T12:40:22.058Z,13.55
2018-11-03T12:41:22.159Z,13.64
2018-11-03T12:42:22.016Z,13.61
2018-11-03T12:43:21.992Z,13.54
2018-11-03T12:44:22.031Z,13.54
2018-11-03T12:45:22.065Z,13.52
2018-11-03T12:46:22.072Z,13.42
2018-11-03T12:47:22.113Z,13.45
2018-11-03T12:48:22.226Z,13.55
2018-11-03T12:49:22.114Z,13.45
2018-11-03T12:50:22.089Z,13.54
2018-11-03T12:51:22.060Z,13.5
2018-11-03T12:52:22.007Z,13.54
2018-11-03T12:57:40.637Z,13.78
2018-11-03T12:57:52.993Z,13.7
2018-11-03T12:58:53.037Z,13.73
2018-11-03T12:59:52.992Z,13.67
2018-11-03T13:00:53.122Z,13.68
2018-11-03T13:01:53.065Z,13.58
2018-11-03T13:02:53.005Z,13.67
2018-11-03T13:03:53.005Z,13.67
2018-11-03T13:04:53.127Z,13.68
2018-11-03T13:05:53.019Z,13.7
2018-11-03T13:06:53.021Z,13.7
2018-11-03T13:07:52.998Z,13.61
2018-11-03T13:08:53.114Z,13.71
2018-11-03T13:09:53.196Z,13.82
2018-11-03T13:10:53.024Z,13.83
2018-11-03T13:11:53.158Z,13.75
2018-11-03T13:12:53.101Z,13.79
2018-11-03T13:13:53.205Z,13.71
2018-11-03T13:14:53.019Z,13.64
2018-11-03T13:15:53.052Z,13.7
2018-11-03T13:16:53.091Z,13.65
2018-11-03T13:17:53.207Z,13.76
2018-11-03T13:18:53.009Z,13.85
2018-11-03T13:19:53.002Z,13.78
2018-11-03T13:20:53.047Z,13.75
2018-11-03T13:21:53.578Z,13.82
2018-11-03T13:22:53.170Z,13.8
2018-11-03T13:23:53.030Z,13.78
2018-11-03T13:24:53.052Z,13.79
2018-11-03T13:25:53.046Z,13.82
2018-11-03T13:26:53.133Z,13.86
2018-11-03T13:27:53.111Z,13.85
2018-11-03T13:28:53.022Z,13.87
2018-11-03T13:29:53.136Z,13.71
2018-11-03T13:30:53.116Z,13.89
2018-11-03T13:31:53.155Z,13.83
2018-11-03T13:32:53.035Z,13.91
2018-11-03T13:37:22.489Z,13.87
2018-11-03T13:38:22.475Z,13.95
2018-11-03T13:39:22.521Z,13.91
2018-11-03T13:40:22.508Z,13.83
2018-11-03T13:41:22.493Z,13.85
2018-11-03T13:42:22.449Z,13.89
2018-11-03T13:43:22.428Z,13.83
2018-11-03T13:44:22.500Z,13.79
2018-11-03T13:45:22.451Z,13.73
2018-11-03T13:46:22.536Z,13.8